Time;durP1;ratioP1;P1;durP2;ratioP2;P2;SDS_P1;SDS_P2;PMS_P1;PMS_P2;Temp;Humidity;BMP_temperature;BMP_pressure;BME280_temperature;BME280_humidity;BME280_pressure;Samples;Min_cycle;Max_cycle;Signal;HPM_P1;HPM_P2
2023/10/12 00:00:24;;;;;;;;;;;;;;;5.88;70.60;99189.16;5027225;28;19923;-68
2023/10/12 00:02:48;;;;;;;;;;;;;;;5.95;70.48;99167.63;5010539;28;19927;-69
2023/10/12 00:05:17;;;;;;;;;;;;;;;6.05;70.66;99168.53;4997104;28;19921;-73
2023/10/12 00:07:45;;;;;;;;;;;;;;;6.12;70.00;99178.00;5011690;28;20027;-68
2023/10/12 00:12:44;;;;;;;;;;;;;;;6.14;69.86;99154.75;5009390;28;19917;-68
2023/10/12 00:17:52;;;;;;;;;;;;;;;6.25;69.90;99132.34;5027703;28;20398;-70
2023/10/12 00:20:25;;;;;;;;;;;;;;;6.27;70.14;99138.38;4995062;28;19944;-71
2023/10/12 00:22:54;;;;;;;;;;;;;;;6.27;70.09;99120.28;5032969;28;19917;-71
2023/10/12 00:25:26;;;;;;;;;;;;;;;6.31;70.17;99127.16;5011895;28;20319;-69
2023/10/12 00:27:52;;;;;;;;;;;;;;;6.33;69.76;99128.00;5013438;28;19921;-69
2023/10/12 00:30:23;;;;;;;;;;;;;;;6.36;69.85;99114.22;5018453;28;19921;-69
2023/10/12 00:32:51;;;;;;;;;;;;;;;6.38;69.46;99128.03;5028537;28;19925;-68
2023/10/12 00:35:18;;;;;;;;;;;;;;;6.39;69.68;99113.34;5015686;28;19928;-68
2023/10/12 00:37:46;;;;;;;;;;;;;;;6.40;69.56;99120.25;5011996;28;20411;-70
2023/10/12 00:40:32;;;;;;;;;;;;;;;6.41;69.66;99106.47;5018382;28;20406;-69
2023/10/12 00:43:03;;;;;;;;;;;;;;;6.42;69.34;99109.03;5032492;28;19955;-70
2023/10/12 00:45:29;;;;;;;;;;;;;;;6.47;69.14;99104.72;5033139;28;19975;-69
2023/10/12 00:48:06;;;;;;;;;;;;;;;6.51;69.32;99077.13;5015743;28;19925;-69
2023/10/12 00:50:36;;;;;;;;;;;;;;;6.55;69.37;99059.88;5015061;28;19923;-70
2023/10/12 00:53:15;;;;;;;;;;;;;;;6.61;69.00;99050.38;5013189;28;19917;-69
2023/10/12 00:55:41;;;;;;;;;;;;;;;6.63;68.76;99046.06;5016010;28;20650;-69
2023/10/12 00:58:13;;;;;;;;;;;;;;;6.62;68.65;99030.56;5003413;28;20397;-70
2023/10/12 01:00:51;;;;;;;;;;;;;;;6.55;68.94;99029.72;5008990;28;19981;-70
2023/10/12 01:03:35;;;;;;;;;;;;;;;6.47;68.83;99006.50;5014478;28;20128;-70
2023/10/12 01:08:35;;;;;;;;;;;;;;;6.45;69.21;99009.97;5032303;28;19921;-70
2023/10/12 01:11:08;;;;;;;;;;;;;;;6.44;69.31;99003.91;5014248;28;19921;-69
2023/10/12 01:13:34;;;;;;;;;;;;;;;6.40;69.21;99034.97;5030992;28;19943;-70
2023/10/12 01:16:20;;;;;;;;;;;;;;;6.34;69.04;99053.94;5001719;28;19923;-69
2023/10/12 01:19:05;;;;;;;;;;;;;;;6.30;69.31;99047.91;5001606;28;20019;-70
2023/10/12 01:21:37;;;;;;;;;;;;;;;6.26;69.39;99069.47;5003146;28;20160;-72
2023/10/12 01:24:12;;;;;;;;;;;;;;;6.24;69.44;99031.56;5030792;28;19932;-70
2023/10/12 01:26:38;;;;;;;;;;;;;;;6.20;69.60;99047.94;5032367;28;19928;-70
2023/10/12 01:29:12;;;;;;;;;;;;;;;6.19;69.89;99044.50;5016446;28;20207;-69
2023/10/12 01:31:43;;;;;;;;;;;;;;;6.21;69.71;99031.56;5018078;28;19980;-71
2023/10/12 01:34:09;;;;;;;;;;;;;;;6.28;70.09;99016.06;5031601;28;19923;-70
2023/10/12 01:36:35;;;;;;;;;;;;;;;6.33;70.28;99014.31;5015514;28;19921;-70
2023/10/12 01:39:14;;;;;;;;;;;;;;;6.32;69.88;99015.16;5015363;28;20149;-71
2023/10/12 01:41:43;;;;;;;;;;;;;;;6.38;69.85;99003.97;5025846;28;19916;-69
2023/10/12 01:44:12;;;;;;;;;;;;;;;6.43;69.77;98986.69;5000924;28;20466;-70
2023/10/12 01:46:50;;;;;;;;;;;;;;;6.47;70.23;98993.56;5030244;28;19998;-70
2023/10/12 01:49:24;;;;;;;;;;;;;;;6.51;70.04;98978.88;5033475;28;19921;-70
2023/10/12 01:51:53;;;;;;;;;;;;;;;6.55;70.16;98972.00;4998593;28;19936;-70
2023/10/12 01:54:25;;;;;;;;;;;;;;;6.63;70.29;98991.78;5029237;28;19916;-70
2023/10/12 01:56:55;;;;;;;;;;;;;;;6.72;70.25;98979.66;5015440;28;19917;-71
2023/10/12 01:59:25;;;;;;;;;;;;;;;6.77;69.95;98972.72;5017646;28;19921;-70
2023/10/12 02:02:06;;;;;;;;;;;;;;;6.77;69.58;98977.88;5018993;28;19987;-73
2023/10/12 02:04:39;;;;;;;;;;;;;;;6.82;69.80;98952.84;5030274;28;19917;-69
2023/10/12 02:07:05;;;;;;;;;;;;;;;6.86;69.96;98944.22;4992828;28;19917;-70
2023/10/12 02:09:34;;;;;;;;;;;;;;;6.91;69.76;98942.47;4996091;28;19952;-70
2023/10/12 02:12:11;;;;;;;;;;;;;;;6.97;69.68;98935.50;4999674;28;19952;-70
2023/10/12 02:14:46;;;;;;;;;;;;;;;7.01;69.68;98938.06;5012954;28;20678;-69
2023/10/12 02:17:12;;;;;;;;;;;;;;;7.05;69.78;98932.00;5026192;28;19931;-69
2023/10/12 02:19:43;;;;;;;;;;;;;;;7.07;69.50;98917.31;5008274;28;20031;-69
2023/10/12 02:22:28;;;;;;;;;;;;;;;7.09;69.37;98904.38;5030498;28;20094;-68
2023/10/12 02:25:18;;;;;;;;;;;;;;;7.08;69.47;98897.47;5007321;28;19952;-69
2023/10/12 02:27:54;;;;;;;;;;;;;;;7.09;69.24;98922.47;5012881;28;19983;-69
2023/10/12 02:30:27;;;;;;;;;;;;;;;7.10;69.27;98900.91;5028407;28;19924;-69
2023/10/12 02:33:00;;;;;;;;;;;;;;;7.13;69.27;98906.06;5028218;28;19944;-69
2023/10/12 02:35:36;;;;;;;;;;;;;;;7.10;68.62;98887.97;4995645;28;19921;-70
2023/10/12 02:38:10;;;;;;;;;;;;;;;7.01;69.15;98890.63;5029538;28;19990;-70
2023/10/12 02:40:41;;;;;;;;;;;;;;;6.92;69.28;98907.09;5014415;28;19921;-71
2023/10/12 02:43:10;;;;;;;;;;;;;;;6.86;69.59;98917.47;4997736;28;19935;-72
2023/10/12 02:45:49;;;;;;;;;;;;;;;6.85;69.50;98889.91;5014765;28;19921;-70
2023/10/12 02:48:23;;;;;;;;;;;;;;;6.85;69.45;98884.72;5032487;28;19925;-70
2023/10/12 02:50:58;;;;;;;;;;;;;;;6.86;69.56;98882.16;5026721;28;19917;-71
2023/10/12 02:53:31;;;;;;;;;;;;;;;6.91;69.82;98858.81;5015064;28;20405;-69
2023/10/12 02:56:01;;;;;;;;;;;;;;;6.93;69.83;98855.38;5014382;28;19921;-70
2023/10/12 02:58:29;;;;;;;;;;;;;;;7.00;69.52;98842.34;5032795;28;19943;-70
2023/10/12 03:00:58;;;;;;;;;;;;;;;7.01;69.47;98852.72;5013590;28;19917;-69
2023/10/12 03:03:36;;;;;;;;;;;;;;;7.06;69.68;98848.31;5030457;28;19917;-70
2023/10/12 03:06:07;;;;;;;;;;;;;;;7.13;69.54;98843.09;5009367;28;19916;-69
2023/10/12 03:08:46;;;;;;;;;;;;;;;7.17;69.43;98818.91;5028824;28;19921;-68
2023/10/12 03:11:19;;;;;;;;;;;;;;;7.21;69.51;98826.63;5025528;28;19917;-68
2023/10/12 03:14:00;;;;;;;;;;;;;;;7.28;69.32;98798.09;5025421;28;19916;-68
2023/10/12 03:16:34;;;;;;;;;;;;;;;7.26;69.23;98797.25;5011134;28;19917;-67
2023/10/12 03:19:17;;;;;;;;;;;;;;;7.24;69.05;98776.56;5012694;28;19995;-69
2023/10/12 03:21:47;;;;;;;;;;;;;;;7.24;69.26;98772.25;5029702;28;20366;-68
2023/10/12 03:24:14;;;;;;;;;;;;;;;7.28;69.08;98775.69;5014280;28;19924;-69
2023/10/12 03:27:10;;;;;;;;;;;;;;;7.32;69.07;98771.31;5011633;28;19917;-69
2023/10/12 03:29:34;;;;;;;;;;;;;;;7.36;68.84;98783.34;5012406;28;19928;-68
2023/10/12 03:32:00;;;;;;;;;;;;;;;7.41;68.71;98811.75;4992549;28;20298;-70
2023/10/12 03:34:53;;;;;;;;;;;;;;;7.47;68.82;98775.44;5012550;28;19921;-68
2023/10/12 03:37:39;;;;;;;;;;;;;;;7.51;68.57;98777.09;5004250;28;19921;-68
2023/10/12 03:40:48;;;;;;;;;;;;;;;7.48;68.21;98784.94;5026876;28;19917;-68
2023/10/12 03:42:54;;;;;;;;;;;;;;;7.23;68.53;98777.44;5009493;28;19928;-67
2023/10/12 03:45:48;;;;;;;;;;;;;;;7.06;68.75;98785.38;5012482;28;20434;-68
2023/10/12 03:48:25;;;;;;;;;;;;;;;6.94;69.23;98786.38;5026489;28;19935;-69
2023/10/12 03:50:58;;;;;;;;;;;;;;;6.92;69.48;98782.94;5009719;28;20383;-69
2023/10/12 03:53:56;;;;;;;;;;;;;;;6.87;69.76;98761.44;5017229;28;19925;-68
2023/10/12 03:56:38;;;;;;;;;;;;;;;6.90;70.05;98766.59;5012410;28;20012;-69
2023/10/12 03:59:06;;;;;;;;;;;;;;;6.92;69.70;98760.53;5016974;28;19917;-68
2023/10/12 04:01:35;;;;;;;;;;;;;;;6.93;69.96;98749.31;5008766;28;19924;-72
2023/10/12 04:04:34;;;;;;;;;;;;;;;6.93;70.54;98745.88;5033371;28;19920;-72
2023/10/12 04:07:16;;;;;;;;;;;;;;;6.96;70.29;98745.84;5013946;28;19924;-72
2023/10/12 04:09:51;;;;;;;;;;;;;;;6.99;70.43;98737.16;5032018;28;19921;-73
2023/10/12 04:14:54;;;;;;;;;;;;;;;7.07;70.34;98725.03;5013846;28;19944;-68
2023/10/12 04:25:46;;;;;;;;;;;;;;;7.32;70.54;98722.13;5009240;28;20319;-69
2023/10/12 04:36:13;;;;;;;;;;;;;;;7.65;70.57;98718.25;5002976;28;20028;-68
2023/10/12 04:43:52;;;;;;;;;;;;;;;7.87;70.06;98680.78;5027942;28;19920;-68
2023/10/12 04:49:29;;;;;;;;;;;;;;;8.07;69.94;98696.03;5013862;28;19932;-72
2023/10/12 04:54:49;;;;;;;;;;;;;;;8.27;69.40;98690.53;5030168;28;19921;-72
2023/10/12 04:57:15;;;;;;;;;;;;;;;8.34;69.39;98681.72;5005528;28;19916;-72
2023/10/12 04:59:51;;;;;;;;;;;;;;;8.40;68.87;98692.00;5014786;28;20004;-72
2023/10/12 05:02:41;;;;;;;;;;;;;;;8.49;68.46;98674.63;5002394;28;19960;-72
2023/10/12 05:05:37;;;;;;;;;;;;;;;8.55;68.67;98684.84;5013928;28;19924;-71
2023/10/12 05:08:01;;;;;;;;;;;;;;;8.63;68.29;98676.94;5010978;28;19921;-74
2023/10/12 05:13:04;;;;;;;;;;;;;;;8.62;68.18;98693.38;5030851;28;19943;-73
2023/10/12 05:15:39;;;;;;;;;;;;;;;8.50;68.03;98704.81;5012467;28;19947;-75
2023/10/12 05:18:17;;;;;;;;;;;;;;;8.36;68.15;98711.06;5016899;28;19923;-75
2023/10/12 05:20:43;;;;;;;;;;;;;;;8.27;68.29;98719.03;5015676;28;19924;-73
2023/10/12 05:23:11;;;;;;;;;;;;;;;8.26;68.41;98704.34;4999040;28;19923;-75
2023/10/12 05:28:21;;;;;;;;;;;;;;;8.33;68.50;98695.56;5028503;28;19926;-71
2023/10/12 05:31:13;;;;;;;;;;;;;;;8.36;68.64;98705.91;5030049;28;19921;-72
2023/10/12 05:33:43;;;;;;;;;;;;;;;8.43;68.45;98699.72;5030019;28;20066;-73
2023/10/12 05:36:13;;;;;;;;;;;;;;;8.48;68.43;98689.31;5030914;28;19974;-73
2023/10/12 05:38:48;;;;;;;;;;;;;;;8.51;68.33;98681.47;5015083;28;19921;-72
2023/10/12 05:41:21;;;;;;;;;;;;;;;8.51;68.21;98689.25;5028298;28;20016;-72
2023/10/12 05:43:47;;;;;;;;;;;;;;;8.50;68.26;98681.47;5015988;28;19921;-72
2023/10/12 05:46:15;;;;;;;;;;;;;;;8.47;68.42;98678.94;5011887;28;19917;-72
2023/10/12 05:48:46;;;;;;;;;;;;;;;8.39;68.47;98689.41;5029462;28;19943;-72
2023/10/12 05:51:14;;;;;;;;;;;;;;;8.34;69.11;98675.72;5030511;28;19917;-71
2023/10/12 05:53:43;;;;;;;;;;;;;;;8.34;69.09;98666.19;5027472;28;19932;-69
2023/10/12 05:56:09;;;;;;;;;;;;;;;8.39;69.05;98664.38;5012023;28;19916;-72
2023/10/12 05:58:53;;;;;;;;;;;;;;;8.39;69.01;98654.00;5027989;28;19924;-74
2023/10/12 06:04:19;;;;;;;;;;;;;;;8.46;69.50;98643.53;4991890;28;19928;-71
2023/10/12 06:06:46;;;;;;;;;;;;;;;8.50;69.32;98645.19;4997897;28;19917;-71
2023/10/12 06:09:12;;;;;;;;;;;;;;;8.48;69.17;98645.22;4999191;28;19951;-70
2023/10/12 06:11:41;;;;;;;;;;;;;;;8.49;69.39;98646.94;5016629;28;19929;-70
2023/10/12 06:14:12;;;;;;;;;;;;;;;8.45;69.66;98658.22;5018791;28;19924;-73
2023/10/12 06:16:41;;;;;;;;;;;;;;;8.46;69.91;98652.16;5011165;28;20403;-73
2023/10/12 06:19:22;;;;;;;;;;;;;;;8.44;69.86;98641.81;5015545;28;19943;-72
2023/10/12 06:21:50;;;;;;;;;;;;;;;8.43;69.89;98634.06;5030222;28;20333;-71
2023/10/12 06:24:21;;;;;;;;;;;;;;;8.49;70.15;98622.75;4984473;28;19920;-71
2023/10/12 06:26:50;;;;;;;;;;;;;;;8.56;70.12;98620.03;5011321;28;19917;-72
2023/10/12 06:29:25;;;;;;;;;;;;;;;8.64;70.19;98617.28;5014032;28;19928;-72
2023/10/12 06:31:54;;;;;;;;;;;;;;;8.77;70.34;98614.41;5010460;28;20028;-72
2023/10/12 06:34:29;;;;;;;;;;;;;;;8.89;70.61;98602.03;5014683;28;19920;-70
2023/10/12 06:36:57;;;;;;;;;;;;;;;8.97;70.13;98591.50;4995911;28;20007;-70
2023/10/12 06:44:27;;;;;;;;;;;;;;;9.17;70.43;98572.03;5028405;28;19917;-70
2023/10/12 06:46:53;;;;;;;;;;;;;;;9.28;70.01;98576.97;5027753;28;19917;-69
2023/10/12 06:49:24;;;;;;;;;;;;;;;9.40;70.25;98581.91;5010930;28;20483;-69
2023/10/12 06:52:03;;;;;;;;;;;;;;;9.44;69.80;98595.66;4994912;28;19917;-70
2023/10/12 07:00:17;;;;;;;;;;;;;;;9.53;69.92;98572.09;5031804;28;20011;-70
2023/10/12 07:02:45;;;;;;;;;;;;;;;9.57;69.66;98572.84;4997489;28;20390;-70
2023/10/12 07:05:33;;;;;;;;;;;;;;;9.60;69.51;98563.22;5019087;28;19924;-69
2023/10/12 07:08:27;;;;;;;;;;;;;;;9.67;69.44;98563.09;5032024;28;19992;-69
2023/10/12 07:11:00;;;;;;;;;;;;;;;9.77;69.33;98549.00;5021675;28;19973;-68
2023/10/12 07:13:26;;;;;;;;;;;;;;;9.92;69.07;98550.34;5017246;28;19939;-68
2023/10/12 07:15:54;;;;;;;;;;;;;;;10.06;68.92;98542.16;5018894;28;20394;-77
2023/10/12 07:18:23;;;;;;;;;;;;;;;10.22;69.14;98519.19;5035408;28;19924;-69
2023/10/12 07:20:52;;;;;;;;;;;;;;;10.39;68.67;98536.97;5000833;28;19917;-69
2023/10/12 07:23:33;;;;;;;;;;;;;;;10.48;68.09;98528.88;5034951;28;19940;-69
2023/10/12 07:26:00;;;;;;;;;;;;;;;10.62;68.07;98523.28;5034520;28;19924;-69
2023/10/12 07:28:39;;;;;;;;;;;;;;;10.74;67.71;98516.03;5017425;28;20079;-70
2023/10/12 07:33:51;;;;;;;;;;;;;;;10.98;66.94;98496.19;5022908;28;20015;-67
2023/10/12 07:36:17;;;;;;;;;;;;;;;11.07;66.50;98498.53;5024618;28;19943;-69
2023/10/12 07:38:46;;;;;;;;;;;;;;;11.11;66.32;98483.66;5000633;28;19973;-70
2023/10/12 07:41:33;;;;;;;;;;;;;;;11.19;66.07;98483.41;5040333;28;20334;-70
2023/10/12 07:44:03;;;;;;;;;;;;;;;11.22;65.63;98472.88;5036406;28;20023;-66
2023/10/12 07:46:29;;;;;;;;;;;;;;;11.20;65.71;98490.31;5018399;28;19897;-67
2023/10/12 07:49:10;;;;;;;;;;;;;;;11.23;65.41;98472.00;5002530;28;19963;-67
2023/10/12 07:51:59;;;;;;;;;;;;;;;11.19;65.11;98472.97;5034525;28;19933;-67
2023/10/12 07:57:12;;;;;;;;;;;;;;;11.09;64.68;98481.09;5001762;28;19897;-68
2023/10/12 07:59:49;;;;;;;;;;;;;;;11.07;64.65;98471.63;5017304;28;19985;-69
2023/10/12 08:02:15;;;;;;;;;;;;;;;11.09;64.58;98457.69;5023529;28;19916;-65
2023/10/12 08:04:58;;;;;;;;;;;;;;;11.13;64.89;98446.28;5011407;28;19924;-70
2023/10/12 08:07:55;;;;;;;;;;;;;;;11.26;64.55;98443.25;5020968;28;20502;-69
2023/10/12 08:10:16;;;;;;;;;;;;;;;11.35;64.31;98429.94;5036312;28;19921;-70
2023/10/12 08:12:45;;;;;;;;;;;;;;;11.41;64.21;98434.91;5021106;28;19917;-72
2023/10/12 08:15:15;;;;;;;;;;;;;;;11.45;63.89;98426.09;5038734;28;19901;-72
2023/10/12 08:17:45;;;;;;;;;;;;;;;11.50;64.01;98430.31;5015906;28;19939;-70
2023/10/12 08:23:01;;;;;;;;;;;;;;;11.51;63.68;98425.03;5038010;28;19983;-67
2023/10/12 08:25:38;;;;;;;;;;;;;;;11.56;63.18;98417.06;5004471;28;19917;-69
2023/10/12 08:28:27;;;;;;;;;;;;;;;11.63;63.49;98408.13;5020769;28;19928;-72
2023/10/12 08:31:02;;;;;;;;;;;;;;;11.64;63.03;98409.81;5036373;28;19939;-72
2023/10/12 08:33:58;;;;;;;;;;;;;;;11.66;63.16;98399.38;5034354;28;19928;-71
2023/10/12 08:36:39;;;;;;;;;;;;;;;11.66;63.01;98402.81;5016560;28;19940;-71
2023/10/12 08:39:09;;;;;;;;;;;;;;;11.74;62.83;98398.19;5020012;28;19965;-71
2023/10/12 08:42:19;;;;;;;;;;;;;;;11.79;62.91;98382.38;5008166;28;19920;-69
2023/10/12 08:44:39;;;;;;;;;;;;;;;11.81;62.88;98384.91;5034816;28;19927;-68
2023/10/12 08:47:21;;;;;;;;;;;;;;;11.79;62.53;98382.38;5036874;28;20356;-69
2023/10/12 08:49:53;;;;;;;;;;;;;;;11.78;62.38;98372.84;5015282;28;19948;-70
2023/10/12 08:52:27;;;;;;;;;;;;;;;11.79;62.78;98364.13;5011019;28;20062;-71
2023/10/12 08:54:57;;;;;;;;;;;;;;;11.86;62.58;98342.16;5039186;28;19925;-69
2023/10/12 08:57:52;;;;;;;;;;;;;;;11.88;62.72;98355.09;5040138;28;19921;-70
2023/10/12 09:03:04;;;;;;;;;;;;;;;11.93;62.38;98334.06;5019625;28;19924;-71
2023/10/12 09:05:30;;;;;;;;;;;;;;;12.00;62.62;98332.97;5015694;28;19924;-68
2023/10/12 09:13:27;;;;;;;;;;;;;;;12.24;62.04;98322.50;5016795;28;19940;-73
2023/10/12 09:15:57;;;;;;;;;;;;;;;12.22;61.51;98317.38;5000417;28;19917;-69
2023/10/12 09:18:29;;;;;;;;;;;;;;;12.27;62.04;98306.75;5039364;28;19921;-69
2023/10/12 09:23:31;;;;;;;;;;;;;;;12.38;62.02;98301.09;5016908;28;19942;-69
2023/10/12 09:31:13;;;;;;;;;;;;;;;12.49;61.46;98291.06;5031899;28;20303;-70
2023/10/12 09:36:30;;;;;;;;;;;;;;;12.48;61.80;98291.97;5002925;28;19975;-72
2023/10/12 09:39:00;;;;;;;;;;;;;;;12.53;61.38;98294.44;5015374;28;19917;-72
2023/10/12 09:41:38;;;;;;;;;;;;;;;12.57;61.49;98298.63;5013570;28;19952;-69
2023/10/12 09:44:12;;;;;;;;;;;;;;;12.70;61.41;98285.88;5016292;28;19916;-70
2023/10/12 09:46:55;;;;;;;;;;;;;;;12.73;61.20;98306.63;5002247;28;20382;-70
2023/10/12 09:49:54;;;;;;;;;;;;;;;12.70;61.16;98280.66;5001759;28;19921;-71
2023/10/12 09:52:46;;;;;;;;;;;;;;;12.76;61.21;98283.88;5009677;28;19917;-71
2023/10/12 09:55:36;;;;;;;;;;;;;;;12.81;60.98;98273.25;5027439;28;19917;-70
2023/10/12 09:58:15;;;;;;;;;;;;;;;12.90;60.98;98291.13;5016830;28;20402;-71
2023/10/12 10:01:15;;;;;;;;;;;;;;;12.91;61.04;98292.81;5019513;28;19917;-70
2023/10/12 10:03:52;;;;;;;;;;;;;;;12.95;60.62;98302.22;5019494;28;19960;-65
2023/10/12 10:06:45;;;;;;;;;;;;;;;12.94;60.63;98292.69;5010597;28;19921;-71
2023/10/12 10:12:19;;;;;;;;;;;;;;;13.09;60.84;98293.78;5030051;28;20012;-82
2023/10/12 10:14:53;;;;;;;;;;;;;;;13.20;60.68;98309.00;5025178;28;19921;-76
2023/10/12 10:17:23;;;;;;;;;;;;;;;13.17;60.39;98316.97;5019026;28;19957;-73
2023/10/12 10:22:58;;;;;;;;;;;;;;;12.95;60.47;98343.97;4953529;28;19918;-73
2023/10/12 10:25:46;;;;;;;;;;;;;;;12.90;60.33;98337.25;4924887;28;19933;-73
2023/10/12 10:28:25;;;;;;;;;;;;;;;12.86;60.39;98347.00;4990310;28;19920;-73
2023/10/12 10:30:56;;;;;;;;;;;;;;;12.80;60.47;98340.25;5001039;28;19920;-74
2023/10/12 10:33:28;;;;;;;;;;;;;;;12.76;60.57;98338.69;5003504;28;19920;-76
2023/10/12 10:35:57;;;;;;;;;;;;;;;12.76;60.80;98343.91;5032238;28;19928;-76
2023/10/12 10:38:32;;;;;;;;;;;;;;;12.77;60.77;98348.22;5021390;28;19965;-75
2023/10/12 10:41:17;;;;;;;;;;;;;;;12.80;60.96;98358.50;5022821;28;19925;-75
2023/10/12 10:43:53;;;;;;;;;;;;;;;12.77;60.87;98352.56;5018178;28;19920;-74
2023/10/12 10:46:26;;;;;;;;;;;;;;;12.78;61.13;98364.72;5017368;28;19921;-75
2023/10/12 10:48:53;;;;;;;;;;;;;;;12.76;60.83;98359.56;5036923;28;20446;-75
2023/10/12 10:51:29;;;;;;;;;;;;;;;12.77;61.00;98353.44;5001572;28;19921;-76
2023/10/12 10:53:57;;;;;;;;;;;;;;;12.81;61.31;98356.78;5034632;28;19945;-78
2023/10/12 10:56:47;;;;;;;;;;;;;;;12.85;61.37;98368.78;5038080;28;19939;-77
2023/10/12 10:59:13;;;;;;;;;;;;;;;12.80;61.30;98368.13;5019474;28;19921;-75
2023/10/12 11:01:50;;;;;;;;;;;;;;;12.75;61.28;98360.47;5023042;28;19925;-75
2023/10/12 11:04:41;;;;;;;;;;;;;;;12.75;61.54;98368.31;5033164;28;19955;-75
2023/10/12 11:07:07;;;;;;;;;;;;;;;12.78;61.80;98367.34;5038432;28;19917;-74
2023/10/12 11:12:23;;;;;;;;;;;;;;;12.90;62.00;98356.41;5034670;28;19917;-76
2023/10/12 11:15:00;;;;;;;;;;;;;;;12.96;61.88;98365.72;5020571;28;19917;-74
2023/10/12 11:17:35;;;;;;;;;;;;;;;12.98;62.05;98365.66;5000907;28;19963;-74
2023/10/12 11:20:07;;;;;;;;;;;;;;;13.01;61.86;98374.22;5036730;28;19917;-78
2023/10/12 11:25:25;;;;;;;;;;;;;;;13.05;61.81;98374.94;5029813;28;19925;-78
2023/10/12 11:27:55;;;;;;;;;;;;;;;13.06;62.31;98377.47;5028882;28;19897;-78
2023/10/12 11:30:35;;;;;;;;;;;;;;;13.09;62.02;98384.34;5015043;28;20007;-76
2023/10/12 11:33:09;;;;;;;;;;;;;;;13.06;62.00;98372.25;5001993;28;19984;-78
2023/10/12 11:35:43;;;;;;;;;;;;;;;13.07;62.25;98379.19;5011795;28;19912;-75
2023/10/12 11:38:17;;;;;;;;;;;;;;;13.10;61.93;98386.88;5029973;28;19924;-76
2023/10/12 11:40:55;;;;;;;;;;;;;;;13.08;61.88;98388.72;4996929;28;19921;-75
2023/10/12 11:43:44;;;;;;;;;;;;;;;13.06;61.91;98400.16;5020831;28;20329;-73
2023/10/12 11:46:13;;;;;;;;;;;;;;;13.04;62.15;98401.97;5002969;28;19917;-74
2023/10/12 11:48:40;;;;;;;;;;;;;;;13.05;62.13;98398.44;5028730;28;20602;-71
2023/10/12 11:51:13;;;;;;;;;;;;;;;13.08;62.13;98401.75;5025936;28;19980;-82
2023/10/12 11:53:59;;;;;;;;;;;;;;;13.08;62.13;98427.03;5007028;28;19923;-76
2023/10/12 11:56:26;;;;;;;;;;;;;;;12.94;62.29;98414.56;5007647;28;19931;-75
2023/10/12 11:58:55;;;;;;;;;;;;;;;12.84;62.73;98418.44;4990721;28;19918;-76
2023/10/12 12:01:33;;;;;;;;;;;;;;;12.78;62.75;98430.84;5023024;28;19921;-74
2023/10/12 12:04:02;;;;;;;;;;;;;;;12.72;62.93;98430.22;5024461;28;19943;-75
2023/10/12 12:06:32;;;;;;;;;;;;;;;12.64;63.55;98425.28;5024481;28;20016;-75
2023/10/12 12:09:01;;;;;;;;;;;;;;;12.58;63.42;98428.16;5020593;28;19980;-77
2023/10/12 12:11:31;;;;;;;;;;;;;;;12.50;64.01;98411.03;5024300;28;20023;-77
2023/10/12 12:13:59;;;;;;;;;;;;;;;12.53;64.39;98420.50;5023928;28;20562;-77
2023/10/12 12:16:25;;;;;;;;;;;;;;;12.60;64.80;98401.09;5016983;28;19949;-75
2023/10/12 12:18:52;;;;;;;;;;;;;;;12.71;65.18;98403.28;5026629;28;19939;-75
2023/10/12 12:21:31;;;;;;;;;;;;;;;12.81;65.05;98398.53;5010893;28;19921;-75
2023/10/12 12:24:44;;;;;;;;;;;;;;;12.82;65.17;98395.00;5022799;28;20315;-79
2023/10/12 12:26:49;;;;;;;;;;;;;;;12.84;65.32;98387.97;5019064;28;21250;-77
2023/10/12 12:29:16;;;;;;;;;;;;;;;12.86;65.52;98406.16;5011726;28;19931;-78
2023/10/12 12:31:42;;;;;;;;;;;;;;;12.83;65.34;98407.16;5009137;28;19993;-77
2023/10/12 12:34:08;;;;;;;;;;;;;;;12.82;65.60;98381.97;5009778;28;19944;-80
2023/10/12 12:36:38;;;;;;;;;;;;;;;12.56;65.70;98331.66;5008376;28;19917;-82
2023/10/12 12:39:09;;;;;;;;;;;;;;;12.67;65.88;98338.22;5021754;28;19947;-78
2023/10/12 12:41:35;;;;;;;;;;;;;;;12.64;65.99;98323.53;5024536;28;19979;-81
2023/10/12 12:44:02;;;;;;;;;;;;;;;12.59;66.11;98307.19;5010798;28;19916;-82
2023/10/12 12:46:32;;;;;;;;;;;;;;;12.55;66.60;98300.44;5024774;28;19924;-81
2023/10/12 12:48:57;;;;;;;;;;;;;;;12.56;66.84;98295.13;5008935;28;19952;-76
2023/10/12 12:51:23;;;;;;;;;;;;;;;12.58;66.94;98310.75;5028206;28;19918;-77
2023/10/12 12:53:54;;;;;;;;;;;;;;;12.62;67.03;98325.34;5025922;28;19924;-83
2023/10/12 12:56:27;;;;;;;;;;;;;;;12.65;67.09;98328.69;5030083;28;19976;-81
2023/10/12 12:59:18;;;;;;;;;;;;;;;12.70;67.46;98291.09;5012772;28;19917;-81
2023/10/12 13:01:47;;;;;;;;;;;;;;;12.71;67.24;98308.44;5025237;28;20430;-82
2023/10/12 13:04:18;;;;;;;;;;;;;;;12.71;67.25;98339.78;5027344;28;19917;-80
2023/10/12 13:06:44;;;;;;;;;;;;;;;12.67;67.01;98327.78;5025598;28;19922;-80
2023/10/12 13:09:33;;;;;;;;;;;;;;;12.65;67.37;98313.03;5008233;28;19950;-78
2023/10/12 13:11:56;;;;;;;;;;;;;;;12.67;67.35;98312.97;5011790;28;19998;-84
2023/10/12 13:14:22;;;;;;;;;;;;;;;12.47;67.46;98300.72;5024915;28;19917;-81
2023/10/12 13:16:51;;;;;;;;;;;;;;;12.62;67.69;98318.38;5018080;28;19924;-77
2023/10/12 13:19:31;;;;;;;;;;;;;;;12.62;67.53;98341.00;5030107;28;19936;-80
2023/10/12 13:22:00;;;;;;;;;;;;;;;12.61;67.85;98344.50;5008610;28;19943;-79
2023/10/12 13:24:46;;;;;;;;;;;;;;;12.60;67.82;98348.03;4992985;28;19922;-80
2023/10/12 13:27:42;;;;;;;;;;;;;;;;;;;;;
2023/10/12 13:30:25;;;;;;;;;;;;;;;12.54;67.96;98338.69;5020570;28;20055;-77
2023/10/12 13:32:59;;;;;;;;;;;;;;;12.53;67.99;98339.63;5005872;28;19948;-76
2023/10/12 13:38:07;;;;;;;;;;;;;;;12.50;68.11;98335.38;5020640;28;19924;-78
2023/10/12 13:40:35;;;;;;;;;;;;;;;12.50;68.35;98322.34;5026026;28;19949;-76
2023/10/12 13:43:07;;;;;;;;;;;;;;;12.48;68.48;98308.50;5005285;28;19949;-79
2023/10/12 13:45:33;;;;;;;;;;;;;;;12.49;68.60;98325.84;4991952;28;19948;-78
2023/10/12 13:47:59;;;;;;;;;;;;;;;12.51;68.68;98331.00;5022671;28;20118;-77
2023/10/12 13:50:25;;;;;;;;;;;;;;;12.54;68.74;98338.69;5007520;28;19991;-78
2023/10/12 13:52:57;;;;;;;;;;;;;;;12.54;68.73;98340.47;4993999;28;19932;-77
2023/10/12 13:55:34;;;;;;;;;;;;;;;12.52;68.66;98348.34;5025422;28;20035;-79
2023/10/12 13:58:03;;;;;;;;;;;;;;;12.51;68.83;98341.44;5022997;28;19927;-78
2023/10/12 14:00:38;;;;;;;;;;;;;;;12.50;68.79;98337.13;5028643;28;19924;-81
2023/10/12 14:03:10;;;;;;;;;;;;;;;12.51;68.96;98312.72;5030730;28;19923;-82
2023/10/12 14:05:40;;;;;;;;;;;;;;;12.52;69.20;98304.00;5009504;28;19921;-76
2023/10/12 14:08:13;;;;;;;;;;;;;;;12.52;69.11;98343.13;4990579;28;19956;-78
2023/10/12 14:10:41;;;;;;;;;;;;;;;12.51;69.13;98351.88;4990643;28;19970;-75
2023/10/12 14:13:17;;;;;;;;;;;;;;;12.49;69.30;98349.34;5007554;28;19917;-79
2023/10/12 14:15:47;;;;;;;;;;;;;;;12.49;69.17;98351.94;5008098;28;19916;-83
2023/10/12 14:18:38;;;;;;;;;;;;;;;12.50;69.29;98365.81;5020433;28;19990;-83
2023/10/12 14:21:19;;;;;;;;;;;;;;;;;;;;;
2023/10/12 14:23:46;;;;;;;;;;;;;;;12.56;69.56;98355.16;5007687;28;19921;-79
2023/10/12 14:26:35;;;;;;;;;;;;;;;12.59;69.56;98360.25;5006963;28;19921;-86
2023/10/12 14:29:08;;;;;;;;;;;;;;;12.63;69.54;98379.22;5011624;28;20265;-78
2023/10/12 14:31:48;;;;;;;;;;;;;;;12.65;69.66;98373.06;5027553;28;19917;-79
2023/10/12 14:34:14;;;;;;;;;;;;;;;12.67;69.59;98367.75;5028376;28;20777;-83
2023/10/12 14:36:46;;;;;;;;;;;;;;;12.68;69.76;98363.41;5011200;28;19983;-81
2023/10/12 14:39:23;;;;;;;;;;;;;;;12.70;69.82;98327.63;5027039;28;19960;-83
2023/10/12 14:41:53;;;;;;;;;;;;;;;12.69;69.60;98352.06;5031313;28;19924;-81
2023/10/12 14:44:19;;;;;;;;;;;;;;;12.69;69.82;98383.38;5024189;28;19924;-78
2023/10/12 14:46:50;;;;;;;;;;;;;;;12.68;69.81;98368.63;4993147;28;20040;-79
2023/10/12 14:49:17;;;;;;;;;;;;;;;12.69;69.91;98349.44;5021777;28;19948;-84
2023/10/12 14:51:56;;;;;;;;;;;;;;;12.69;69.71;98370.34;5016943;28;19972;-85
2023/10/12 14:54:39;;;;;;;;;;;;;;;12.59;69.85;98372.44;5004550;28;19917;-83
2023/10/12 14:57:12;;;;;;;;;;;;;;;12.50;70.20;98381.47;5010245;28;20019;-85
2023/10/12 14:59:51;;;;;;;;;;;;;;;12.44;70.28;98389.56;4993966;28;19921;-82
2023/10/12 15:02:30;;;;;;;;;;;;;;;12.41;70.42;98363.59;5025968;28;19924;-86
2023/10/12 15:05:36;;;;;;;;;;;;;;;12.40;70.55;98351.47;5009736;28;19917;-82